createdAt,value
2018-07-10T00:03:47.467Z,0.2
2018-07-10T00:08:49.645Z,1
2018-07-10T00:13:51.891Z,1
2018-07-10T00:18:54.251Z,1.2
2018-07-10T00:23:56.557Z,0.6
2018-07-10T00:28:58.957Z,1.5
2018-07-10T00:34:01.174Z,2.3
2018-07-10T00:39:03.470Z,0.8
2018-07-10T00:44:05.639Z,0.7
2018-07-10T00:49:07.957Z,1.2
2018-07-10T00:54:10.508Z,0.9
2018-07-10T00:59:12.647Z,0.5
2018-07-10T01:04:14.920Z,0.6
2018-07-10T01:09:17.279Z,1
2018-07-10T01:14:19.472Z,1.6
2018-07-10T01:19:21.640Z,1
2018-07-10T01:24:23.935Z,1.1
2018-07-10T01:29:26.437Z,1.2
2018-07-10T01:34:28.583Z,2
2018-07-10T01:39:30.917Z,0.6
2018-07-10T01:44:33.305Z,1
2018-07-10T01:49:35.520Z,1.2
2018-07-10T01:54:37.715Z,1.2
2018-07-10T01:59:40.141Z,1.5
2018-07-10T02:04:42.459Z,2.2
2018-07-10T02:09:44.672Z,0.6
2018-07-10T02:14:46.932Z,0.5
2018-07-10T02:19:49.260Z,0.9
2018-07-10T02:24:51.620Z,1
2018-07-10T02:29:53.937Z,1.2
2018-07-10T02:34:56.109Z,0.3
2018-07-10T02:39:58.566Z,1
2018-07-10T02:45:00.736Z,1
2018-07-10T02:50:03.020Z,1.5
2018-07-10T02:55:05.361Z,0.5
2018-07-10T03:00:07.598Z,0.4
2018-07-10T03:05:09.929Z,0.9
2018-07-10T03:10:12.171Z,1.2
2018-07-10T03:15:14.448Z,2
2018-07-10T03:20:16.778Z,0.8
2018-07-10T03:25:19.374Z,0.4
2018-07-10T03:30:21.314Z,1.4
2018-07-10T03:35:23.610Z,2.1
2018-07-10T03:40:25.934Z,1.1
2018-07-10T03:45:28.319Z,0.8
2018-07-10T03:50:30.593Z,0.2
2018-07-10T03:55:32.800Z,0.9
2018-07-10T04:00:35.065Z,0.2
2018-07-10T04:05:37.461Z,3.5
2018-07-10T04:10:39.699Z,0.8
2018-07-10T04:15:41.983Z,0.8
2018-07-10T04:20:44.307Z,0.6
2018-07-10T04:25:46.597Z,1.5
2018-07-10T04:30:48.981Z,0.8
2018-07-10T04:35:51.204Z,0.4
2018-07-10T04:40:53.589Z,0.4
2018-07-10T04:45:55.735Z,0.7
2018-07-10T04:50:58.108Z,1.1
2018-07-10T04:56:00.441Z,0.4
2018-07-10T05:01:02.604Z,0.2
2018-07-10T05:06:05.038Z,0.7
2018-07-10T05:11:07.231Z,0.3
2018-07-10T05:16:09.429Z,0
2018-07-10T05:21:11.885Z,0.7
2018-07-10T05:26:14.201Z,0.1
2018-07-10T05:31:16.318Z,0.1
2018-07-10T05:36:18.635Z,0.6
2018-07-10T05:41:21.039Z,0.8
2018-07-10T05:46:23.370Z,0.7
2018-07-10T05:51:25.566Z,1.2
2018-07-10T05:56:27.878Z,0.7
2018-07-10T06:01:30.115Z,1
2018-07-10T06:06:32.441Z,0.6
2018-07-10T06:11:34.790Z,0.5
2018-07-10T06:16:37.172Z,0.3
2018-07-10T06:21:39.260Z,0.9
2018-07-10T06:26:41.668Z,2
2018-07-10T06:31:43.925Z,0.1
2018-07-10T06:36:46.343Z,1
2018-07-10T06:41:48.575Z,1.5
2018-07-10T06:46:50.885Z,0.9
2018-07-10T06:51:53.108Z,0.9
2018-07-10T06:56:55.507Z,0.2
2018-07-10T07:01:57.680Z,0.1
2018-07-10T07:07:00.081Z,0.7
2018-07-10T07:12:02.360Z,0.2
2018-07-10T07:17:04.610Z,0.1
2018-07-10T07:22:06.865Z,0.2
2018-07-10T07:27:09.275Z,0.5
2018-07-10T07:32:11.518Z,0.2
2018-07-10T07:37:13.735Z,0.9
2018-07-10T07:47:18.340Z,0.9
2018-07-10T07:52:20.642Z,1
2018-07-10T07:57:23.026Z,0.6
2018-07-10T08:02:25.183Z,0.9
2018-07-10T08:07:27.580Z,1
2018-07-10T08:12:29.711Z,0.6
2018-07-10T08:17:32.079Z,2
2018-07-10T08:22:34.377Z,0.8
2018-07-10T08:27:36.599Z,2.2
2018-07-10T08:32:39.008Z,0.7
2018-07-10T08:37:41.312Z,0.4
2018-07-10T08:42:43.567Z,0.3
2018-07-10T08:47:45.968Z,0.6
2018-07-10T08:52:48.098Z,0.2
2018-07-10T08:57:50.488Z,0.5
2018-07-10T09:02:52.769Z,0.7
2018-07-10T09:07:54.982Z,0.5
2018-07-10T09:12:57.366Z,0.6
2018-07-10T09:17:59.577Z,1.6
2018-07-10T09:23:02.010Z,1.1
2018-07-10T09:28:04.327Z,1.3
2018-07-10T09:33:06.546Z,0.4
2018-07-10T09:38:08.866Z,1.6
2018-07-10T09:43:11.212Z,0.9
2018-07-10T09:48:13.298Z,1.2
2018-07-10T09:53:15.624Z,0.2
2018-07-10T09:58:18.017Z,0.7
2018-07-10T10:03:20.223Z,1.3
2018-07-10T10:08:22.560Z,0.8
2018-07-10T10:13:24.837Z,0.5
2018-07-10T10:18:27.244Z,1.4
2018-07-10T10:23:29.450Z,1
2018-07-10T10:28:31.789Z,1.3
2018-07-10T10:33:33.990Z,0.5
2018-07-10T10:38:36.437Z,1.2
2018-07-10T10:43:38.592Z,0.4
2018-07-10T10:48:40.885Z,0.6
2018-07-10T10:53:43.224Z,1
2018-07-10T10:58:45.506Z,1.4
2018-07-10T11:08:50.129Z,0.9
2018-07-10T11:13:52.384Z,1.2
2018-07-10T11:18:54.710Z,1.1
2018-07-10T11:23:56.899Z,1.1
2018-07-10T11:28:59.306Z,0.9
2018-07-10T11:34:01.637Z,0.9
2018-07-10T11:39:03.996Z,1.2
2018-07-10T11:44:06.092Z,1.4
2018-07-10T11:49:08.488Z,1.2
2018-07-10T11:54:10.942Z,1.8
2018-07-10T11:59:12.984Z,0.9
2018-07-10T12:04:15.388Z,1.2
2018-07-10T12:09:17.628Z,1.8
2018-07-10T12:14:19.990Z,2.2
2018-07-10T12:19:22.210Z,0.6
2018-07-10T12:24:24.463Z,2.3
2018-07-10T12:29:26.858Z,2.5
2018-07-10T12:34:29.105Z,1.9
2018-07-10T12:39:31.489Z,1.4
2018-07-10T12:44:33.764Z,3
2018-07-10T12:49:35.927Z,2.4
2018-07-10T12:54:38.225Z,2
2018-07-10T12:59:40.715Z,2.1
2018-07-10T13:04:42.917Z,3.2
2018-07-10T13:09:45.157Z,2.5
2018-07-10T13:14:47.571Z,1.8
2018-07-10T13:19:49.764Z,4.7
2018-07-10T13:24:51.961Z,2.4
2018-07-10T13:29:54.371Z,5.2
2018-07-10T13:34:56.552Z,3.4
2018-07-10T13:39:59.119Z,3.8
2018-07-10T13:45:01.184Z,3.6
2018-07-10T13:50:03.523Z,3.9
2018-07-10T13:55:05.886Z,2.8
2018-07-10T14:00:08.043Z,5.9
2018-07-10T14:05:10.483Z,3.6
2018-07-10T14:10:12.739Z,3.9
2018-07-10T14:15:15.015Z,4.2
2018-07-10T14:20:17.189Z,4.6
2018-07-10T14:25:19.542Z,4.5
2018-07-10T14:30:22.329Z,2.3
2018-07-10T14:35:24.099Z,4.8
2018-07-10T14:40:26.396Z,4.2
2018-07-10T14:45:29.071Z,4.9
2018-07-10T14:50:30.972Z,5.1
2018-07-10T14:55:33.419Z,5.4
2018-07-10T15:00:35.754Z,3.9
2018-07-10T15:05:37.959Z,4.7
2018-07-10T15:10:40.192Z,7.5
2018-07-10T15:15:42.528Z,7.1
2018-07-10T15:20:44.835Z,5.1
2018-07-10T15:25:47.104Z,4.7
2018-07-10T15:30:49.411Z,6.3
2018-07-10T15:35:51.737Z,4
2018-07-10T15:40:53.976Z,5.2
2018-07-10T15:45:56.212Z,4.7
2018-07-10T15:50:58.753Z,3.9
2018-07-10T15:56:01.040Z,6.1
2018-07-10T16:01:03.192Z,7.3
2018-07-10T16:06:05.447Z,6.2
2018-07-10T16:11:07.900Z,2.4
2018-07-10T16:16:10.036Z,5.1
2018-07-10T16:21:12.340Z,3.9
2018-07-10T16:26:14.664Z,6.8
2018-07-10T16:31:17.058Z,7.1
2018-07-10T16:36:19.354Z,5.4
2018-07-10T16:41:21.518Z,6.4
2018-07-10T16:46:23.840Z,6.2
2018-07-10T16:51:26.138Z,4.4
2018-07-10T16:56:28.344Z,4.9
2018-07-10T17:01:30.641Z,4.9
2018-07-10T17:06:33.085Z,5.4
2018-07-10T17:11:35.251Z,6.2
2018-07-10T17:16:37.600Z,5.6
2018-07-10T17:21:39.837Z,5.1
2018-07-10T17:26:42.086Z,6
2018-07-10T17:31:44.594Z,4.4
2018-07-10T17:36:46.825Z,7.3
2018-07-10T17:41:49.194Z,6.4
2018-07-10T17:46:51.600Z,7
2018-07-10T17:51:53.694Z,6.2
2018-07-10T17:56:55.957Z,6.2
2018-07-10T18:01:58.300Z,7.7
2018-07-10T18:07:00.908Z,5.1
2018-07-10T18:12:02.803Z,6.6
2018-07-10T18:17:05.128Z,4.8
2018-07-10T18:22:07.348Z,6.2
2018-07-10T18:27:09.783Z,5.4
2018-07-10T18:32:11.960Z,6.7
2018-07-10T18:37:14.318Z,7.7
2018-07-10T18:42:16.893Z,6.3
2018-07-10T18:47:18.890Z,7.3
2018-07-10T18:52:21.199Z,5.8
2018-07-10T18:57:23.519Z,4.2
2018-07-10T19:02:25.784Z,6.6
2018-07-10T19:12:30.512Z,4.5
2018-07-10T19:17:32.893Z,5.2
2018-07-10T19:22:35.034Z,5.1
2018-07-10T19:27:37.295Z,3.8
2018-07-10T19:32:39.623Z,4.5
2018-07-10T19:37:41.872Z,6.8
2018-07-10T19:42:44.144Z,7.6
2018-07-10T19:47:46.465Z,5.5
2018-07-10T19:52:48.841Z,4.7
2018-07-10T19:57:50.995Z,4.8
2018-07-10T20:02:53.316Z,5.7
2018-07-10T20:07:55.598Z,4.1
2018-07-10T20:12:58.005Z,3.9
2018-07-10T20:18:00.340Z,6.5
2018-07-10T20:23:02.511Z,4.5
2018-07-10T20:28:04.925Z,7
2018-07-10T20:33:07.047Z,4.9
2018-07-10T20:38:09.259Z,5.3
2018-07-10T20:43:11.699Z,5.2
2018-07-10T20:48:14.115Z,4.3
2018-07-10T20:53:16.224Z,5.6
2018-07-10T20:58:18.724Z,7.2
2018-07-10T21:03:20.979Z,6.4
2018-07-10T21:08:23.032Z,5.9
2018-07-10T21:13:25.408Z,2.5
2018-07-10T21:18:27.764Z,4
2018-07-10T21:23:30.014Z,4.8
2018-07-10T21:28:32.269Z,3.5
2018-07-10T21:33:34.671Z,4.2
2018-07-10T21:38:36.899Z,5.5
2018-07-10T21:43:39.190Z,3
2018-07-10T21:48:41.441Z,5
2018-07-10T21:53:43.783Z,4.6
2018-07-10T21:58:46.164Z,5.7
2018-07-10T22:03:48.480Z,8.4
2018-07-10T22:08:50.825Z,4.9
2018-07-10T22:13:52.860Z,4.9
2018-07-10T22:18:55.504Z,4.3
2018-07-10T22:23:57.797Z,5.4
2018-07-10T22:28:59.727Z,4.4
2018-07-10T22:34:02.229Z,4.4
2018-07-10T22:39:04.332Z,7.2
2018-07-10T22:44:06.692Z,3.4
2018-07-10T22:49:09.400Z,5.1
2018-07-10T22:54:11.249Z,5.7
2018-07-10T22:59:13.576Z,7
2018-07-10T23:04:15.857Z,4.7
2018-07-10T23:09:18.288Z,3.1
2018-07-10T23:14:20.471Z,4.3
2018-07-10T23:19:22.731Z,6.1
2018-07-10T23:24:25.090Z,4.4
2018-07-10T23:29:27.454Z,3.9
2018-07-10T23:34:29.797Z,7.9
2018-07-10T23:39:31.933Z,5.1
2018-07-10T23:44:34.150Z,3.9
2018-07-10T23:49:36.613Z,7.3
2018-07-10T23:54:38.894Z,4.6
2018-07-10T23:59:41.127Z,5.2
